Niklas Schmitt

Jefe de ojeadores - Werder Bremen
27 Ene 2028
Jueves
Continuar

Personalidad

Adaptabilidad (18) Ambición (19) Controversia (19) Lealtad (2) Presión (9) Profesionalismo (16) Deportividad (2) Temperamento (19)

Perfil

Estilo de dirección Democrático
Licencia Continental C
Determinación 9
Gestión de personas 14
Motivación 5
Disciplina 9
Satisfacción laboral
100%
Fatiga
0%
Cargo Jefe de ojeadores
Salario 44.7K p/s
Contrato 14.03.2029

Rendimiento

Comportamiento Bueno
Efectividad del entrenamiento
40%
Desarrollo de jugadores
65%
Prevención de lesiones
55%
Implementación táctica
30%

Eventos recientes

Evaluó a un jugador ahora
Asistió a una reunión de captación ahora
Recomendó un objetivo de fichaje ahora
Recomendó un objetivo de fichaje ahora
Cursando desarrollo profesional 7d atrás
Cursando desarrollo profesional 7d atrás
Cursando desarrollo profesional 7d atrás
Observó un partido 7d atrás

Actualmente siguiendo

150
Jugador Club Estado Habilidad Confianza Observado Última observación Último voto
Yusuf Kabadayı FC Augsburg Activo 114 / 128 65% 1 24.01.2028 Aprobar
Cheveyo Tsawa Club Brugge Activo 123 / 131 40% 1 24.01.2028 -
Jorrel Hato Chelsea Activo 160 / 154 40% 1 24.01.2028 -
Philipp Maybach Austria Wien Activo 118 / 118 40% 1 24.01.2028 -
Héctor Fort Real Sociedad Activo 133 / 148 40% 1 17.01.2028 -
Olivier Mambwa Young Boys Activo 104 / 119 40% 1 17.01.2028 -
Yannick Geiger BK Hacken Activo 91 / 116 40% 1 17.01.2028 -
Arnau Martínez Valencia Activo 148 / 154 40% 1 01.01.2028 -
Mateo Castillo Real Cartagena Activo 124 / 133 40% 1 01.01.2028 -
Juan Ramírez Palmeiras Activo 131 / 135 40% 1 29.08.2027 -
Matías Vargas Gimnasia y Esgrima Activo 117 / 123 40% 1 29.08.2027 -
Kévin Denkey FC Cincinnati Activo 142 / 128 40% 1 27.08.2027 -
Sergio Rangel La Equidad Activo 129 / 120 40% 1 25.08.2027 -
Tomás Jacob Atlanta United FC Activo 126 / 119 40% 1 25.08.2027 -
Mauricio Amaro Atlanta United FC Activo 134 / 122 40% 1 24.08.2027 -
Igor Matanović SC Freiburg Activo 138 / 139 40% 1 22.08.2027 -
Leonardo Campana New England Revolution Activo 130 / 135 40% 1 22.08.2027 -
Josh Sargent Toronto FC Activo 128 / 137 40% 1 21.08.2027 -
Theo Corbeanu Toronto FC Activo 121 / 133 40% 1 20.08.2027 -
Jérémy Le Douaron Palermo Activo 131 / 123 40% 2 19.08.2027 -
Cheikh Sabaly Vancouver Whitecaps Activo 127 / 127 40% 1 19.08.2027 -
Johannes Eggestein VfL Wolfsburg Activo 135 / 129 40% 3 18.08.2027 -
Richarlison Bayer Leverkusen Activo 137 / 142 40% 2 18.08.2027 -
Akor Adams Venezia Activo 142 / 146 40% 6 17.08.2027 -
Axel Tape Bayer Leverkusen Activo 136 / 131 40% 1 17.08.2027 -
Willem Geubbels Lecce Activo 134 / 135 40% 1 17.08.2027 -
Sota Kitano Borussia Mönchengladbach Activo 127 / 128 40% 1 16.08.2027 -
Lorenzo Colombo Genoa Activo 149 / 145 40% 2 14.08.2027 -
Ibrahima Koné Almería Activo 119 / 124 40% 1 13.08.2027 -
Mario Soberón Albacete Activo 120 / 120 40% 1 13.08.2027 -
Enes Ünal Getafe Activo 134 / 141 40% 4 12.08.2027 -
Vegard Erlien Valladolid Activo 123 / 124 40% 3 12.08.2027 -
Jorge Salinas Racing Santander Activo 130 / 131 40% 2 11.08.2027 -
Renato Júnior Al Wasl Activo 118 / 127 40% 1 11.08.2027 -
Didier Dawson Envigado Activo 107 / 112 40% 1 11.08.2027 -
Martin Terrier Bayer Leverkusen Activo 148 / 146 40% 5 09.08.2027 -
Aaron Connolly Leyton Orient Activo 128 / 124 40% 3 09.08.2027 -
Enis Destan Konyaspor Activo 113 / 132 40% 2 08.08.2027 -
Jackson Muleka Konyaspor Activo 128 / 129 40% 5 07.08.2027 -
Aune Heggebø West Bromwich Albion Activo 126 / 132 40% 2 07.08.2027 -
Jay Stansfield Birmingham Activo 137 / 132 40% 1 06.08.2027 -
Reuell Walters Luton Town Activo 123 / 127 40% 1 06.08.2027 -
Aleix Garrido Eibar Activo 134 / 135 40% 1 06.08.2027 -
David Okereke Cremonese Activo 124 / 127 40% 2 04.08.2027 -
Alemão Rayo Vallecano Activo 140 / 129 40% 6 03.08.2027 -
Stiven Shpendi Empoli Activo 121 / 128 40% 1 03.08.2027 -
Andrei Coubiş Lincoln City Activo 117 / 118 40% 1 03.08.2027 -
Pau Casadesús Granada Activo 116 / 126 40% 1 01.08.2027 -
Dylan Lawlor Cardiff City Activo 122 / 125 40% 1 01.08.2027 -
Romano Floriani Mussolini Avellino Activo 120 / 127 40% 1 31.07.2027 -
Ben Chrisene Norwich City Activo 129 / 121 40% 2 30.07.2027 -
Tommaso Barbieri Cremonese Activo 136 / 138 40% 1 30.07.2027 -
Yussif Saidu Zaragoza Activo 123 / 126 40% 1 29.07.2027 -
Lewis Bate Stockport County Activo 118 / 123 40% 1 26.07.2027 -
Figueiredo Alverca Activo 138 / 132 40% 3 23.07.2027 -
Bertuğ Yıldırım Basaksehir Activo 143 / 126 40% 2 22.07.2027 -
Vinícius Lopes Santa Clara Activo 130 / 120 40% 1 22.07.2027 -
Juninho Pumas UNAM Activo 133 / 124 40% 5 19.07.2027 -
Christian Ebere Cruz Azul Activo 114 / 126 40% 3 18.07.2027 -
Pejman Azmoun Gostaresh Foulad Activo 120 / 129 40% 1 16.07.2027 -
Richard Koné Queens Park Rangers Activo 118 / 127 40% 1 14.07.2027 -
Morteza Mohammadi Padideh Activo 129 / 133 40% 2 10.07.2027 -
Ismael Díaz Leon Activo 136 / 125 40% 4 09.07.2027 -
Juanmi Latasa Valladolid Activo 133 / 130 40% 3 07.07.2027 -
Herba Guirassy Monaco Activo 119 / 127 40% 1 06.07.2027 -
Boulaye Dia Lazio Activo 134 / 138 40% 2 03.07.2027 -
Lucas Ferreira Shakhtar Activo 117 / 128 40% 1 02.07.2027 -
Luca Langoni Besiktas Activo 119 / 128 40% 1 02.07.2027 -
Yoane Wissa Newcastle United Activo 157 / 144 40% 1 02.07.2027 -
Óscar Aranda VfL Wolfsburg Activo 136 / 127 40% 3 29.06.2027 -
Julien Arnaud Stade Brestois Activo 109 / 116 40% 1 29.06.2027 -
Matheus Gonçalves Al-Ahli Activo 132 / 135 40% 1 29.06.2027 -
Ezequiel Ponce Elche Activo 139 / 125 40% 1 29.06.2027 -
Aral Şimşir Trabzonspor Activo 139 / 130 40% 1 28.06.2027 -
Konan N'Dri Lecce Activo 134 / 129 40% 1 26.06.2027 -
Diogo Spencer Alverca Activo 123 / 125 40% 1 25.06.2027 -
Ezra Mayers West Ham United Activo 129 / 125 40% 1 25.06.2027 -
Derry Scherhant SC Freiburg Activo 129 / 136 40% 1 25.06.2027 -
Dominic Calvert-Lewin Leeds United Activo 137 / 139 40% 1 25.06.2027 -
Che Adams Torino Activo 143 / 143 40% 1 21.06.2027 -
Fer Niño Elche Activo 123 / 131 40% 1 20.06.2027 -
Marlon Gomes Shakhtar Activo 133 / 143 40% 1 17.06.2027 -
Pedro Henrique Shakhtar Activo 140 / 138 40% 1 17.06.2027 -
Ozziel Herrera Tigres Activo 127 / 132 40% 1 15.06.2027 -
Diego Rossi Monterrey Activo 151 / 137 40% 2 14.06.2027 -
Boris Matić Wolfsberger AC Activo 128 / 125 40% 3 14.06.2027 -
Mahamadou Doumbia Al-Ittihad Activo 143 / 135 40% 1 13.06.2027 -
Taichi Fukui Arouca Activo 123 / 131 40% 1 13.06.2027 -
Filip Stojilković Pisa Activo 124 / 121 40% 1 10.06.2027 -
Issa Soumaré Stade Rennais Activo 126 / 130 40% 1 09.06.2027 -
Christian Kouamé CSKA Moscow Activo 124 / 133 40% 1 08.06.2027 -
Fabian Rieder FC Augsburg Activo 143 / 142 62% 1 07.06.2027 Aprobar
Hugo Cuypers Monterrey Activo 112 / 126 40% 1 07.06.2027 -
Rodrygo Rangel Veracruz Activo 125 / 139 40% 4 05.06.2027 -
Álex Forés Burgos Activo 128 / 128 40% 1 05.06.2027 -
Rio Ngumoha Brentford Activo 140 / 141 40% 1 05.06.2027 -
Erik Prekop Gornik Zabrze Activo 137 / 129 40% 1 02.06.2027 -
Hugo Bolin Borussia Mönchengladbach Activo 124 / 132 62% 1 01.06.2027 Aprobar
Ilay Camara Anderlecht Activo 123 / 128 40% 2 30.01.2027 -
Arthur Cabral Botafogo Activo 118 / 128 40% 1 30.01.2027 -
Brodie Spencer Oxford United Activo 111 / 126 40% 1 30.01.2027 -
Urko Izeta Cádiz Activo 119 / 130 40% 3 29.01.2027 -
Omar Campos Cruz Azul Activo 109 / 125 40% 1 29.01.2027 -
Freddie Potts Club Brugge Activo 132 / 128 40% 1 29.01.2027 -
Marvin Pieringer Heidenheim Activo 116 / 132 40% 1 29.01.2027 -
Dehmaine Tabibou FC Nantes Activo 136 / 126 40% 1 26.01.2027 -
Phillip Tietz Mainz 05 Activo 136 / 130 40% 1 26.01.2027 -
Petter Nosa Dahl Rapid Wien Activo 123 / 126 40% 1 26.01.2027 -
Talles Magno Stade Rennais Activo 142 / 134 40% 1 25.01.2027 -
Samuel Essende Young Boys Activo 127 / 120 40% 1 23.01.2027 -
Alexandr Sobolev Zenit Activo 126 / 130 40% 2 20.01.2027 -
Mexx Meerdink AZ Activo 141 / 134 40% 1 20.01.2027 -
Ben Nelson Leicester City Activo 129 / 136 40% 2 17.01.2027 -
Callum O'Hare Sheffield United Activo 131 / 128 40% 2 12.01.2027 -
Gustavo Silva Vitoria Guimaraes Activo 129 / 120 40% 1 12.01.2027 -
Andrej Kramarić TSG Hoffenheim Activo 143 / 140 58% 1 11.01.2027 -
Chris Ramos Botafogo Activo 115 / 121 40% 1 10.01.2027 -
Caspar Jander Southampton Activo 131 / 135 40% 2 09.01.2027 -
Wagner Pina Trabzonspor Activo 141 / 133 40% 1 09.01.2027 -
Kyriani Sabbe Club Brugge Activo 125 / 128 40% 1 06.01.2027 -
Armin Gigović Young Boys Activo 136 / 130 40% 1 03.01.2027 -
Arsenii Batahov Trabzonspor Activo 133 / 138 40% 1 03.01.2027 -
Dion Lopy Al-Ittihad Activo 125 / 125 40% 1 02.01.2027 -
Adam Hložek TSG Hoffenheim Activo 137 / 132 40% 2 30.08.2026 -
Jon Karrikaburu Burgos Activo 118 / 131 40% 1 30.08.2026 -
Eliás Montiel Athletic Bilbao Activo 135 / 134 40% 1 30.08.2026 -
El Chadaille Bitshiabu Union Berlin Activo 143 / 135 40% 1 30.08.2026 -
Lucas Boyé Alavés Activo 126 / 134 40% 2 28.08.2026 -
Jorge Pascual Granada Activo 141 / 136 40% 1 28.08.2026 -
Jon Martín Real Sociedad Activo 137 / 135 40% 1 28.08.2026 -
Lucas Agazzi Benfica Activo 126 / 127 40% 1 28.08.2026 -
Petar Musa Olympique de Marseille Activo 135 / 137 40% 2 26.08.2026 -
Uriel Antuna Athletic Bilbao Activo 137 / 130 40% 1 24.08.2026 -
Aitor Ruibal Betis Activo 128 / 134 40% 1 24.08.2026 -
Marvin Kaleta Rotherham United Activo 106 / 110 40% 1 24.08.2026 -
Ollie Scarles West Ham United Activo 136 / 140 40% 1 24.08.2026 -
Gilberto Mora AC Milan Activo 128 / 135 40% 1 22.08.2026 -
John Mellberg Red Bull Salzburg Activo 112 / 120 40% 1 20.08.2026 -
Andrés Martín Racing Santander Activo 142 / 129 40% 2 18.08.2026 -
Bertrand Traoré Sunderland Activo 141 / 129 40% 1 17.08.2026 -
Jesus Ferreira Seattle Sounders Activo 124 / 119 40% 1 15.08.2026 -
Joe Gelhardt Hull City Activo 128 / 132 40% 1 15.08.2026 -
Dani Raba Valencia Activo 139 / 133 40% 1 13.08.2026 -
Samuel Marques Grasshopper Activo 107 / 109 40% 1 11.08.2026 -
Sebastián Villa Boca Juniors Activo 129 / 121 40% 1 09.08.2026 -
Conrad Harder RB Leipzig Activo 144 / 140 40% 1 09.08.2026 Más información
Taiwo Awoniyi Coventry City Activo 131 / 134 40% 1 08.08.2026 -
Dániel Gazdag Columbus Crew Activo 111 / 134 40% 1 05.08.2026 -
Andrej Ilić Union Berlin Activo 131 / 134 40% 1 03.08.2026 -
Peque Sevilla Activo 143 / 142 40% 1 01.08.2026 -